• Join FlightAware (Why Join?)
  • Login
  • US Flag 
10:39PM EST


 

Airport Tracker/Info


-or-


 

Live Flight TrackerFlight Track Log ✈ SWA1736 ✈ 12-May-2013 ✈ KLAX - KPHX

Flight Track Log - Related Links

Times and Time Zones

All times are in EDT time to prevent confusion due to time zone crossing. See the SWA1736 flight status page for this flight to view local times or setup timezone preferences in your user account.

Time Position Orientation Groundspeed Altitude Reporting Facility
EDT Latitude Longitude Course Direction KTS MPH feet Rate Location/Type
07:54PM 33.9400 -118.4411 219° Southwest 130 150 1,300  Level Los Angeles Center
07:55PM 33.8775 -118.5031 219° Southwest 213 245 3,800 2,220 Climbing Los Angeles Center
07:56PM 33.8203 -118.5497 214° Southwest 268 308 5,900 2,220 Climbing Los Angeles Center
07:57PM 33.7469 -118.5258 165° South 279 321 8,500 2,580 Climbing Los Angeles Center
07:58PM 33.6764 -118.4833 153° Southeast 298 343 11,300 2,700 Climbing Los Angeles Center
07:59PM 33.6531 -118.3617 103° East 320 368 14,200 2,940 Climbing Los Angeles Center
08:00PM 33.6403 -118.2497 98° East 347 399 17,400 2,820 Climbing Los Angeles Center
08:01PM 33.6444 -118.1306 88° East 360 414 20,100 2,460 Climbing Los Angeles Center
08:02PM 33.6447 -117.9792 90° East 372 428 22,600 1,380 Climbing Los Angeles Center
08:03PM 33.6444 -117.8508 90° East 379 436 23,000 180 Climbing Los Angeles Center
08:04PM 33.6444 -117.7189 90° East 392 451 23,100 1,200 Climbing Los Angeles Center
08:05PM 33.6442 -117.5592 90° East 399 459 25,800 2,220 Climbing Los Angeles Center
08:06PM 33.6436 -117.4489 90° East 407 468 27,700 2,400 Climbing Los Angeles Center
08:07PM 33.6425 -117.2872 90° East 408 470 30,800 2,460 Climbing Los Angeles Center
08:08PM 33.6425 -117.1253 90° East 405 466 32,900 1,020 Climbing Los Angeles Center
08:10PM 33.6372 -116.9889 93° East 410 472 33,000  Climbing Los Angeles Center
08:11PM 33.6367 -116.8458 90° East 413 475 33,000  Level Los Angeles Center
08:12PM 33.6347 -116.7119 91° East 405 466 33,000  Level Los Angeles Center
08:13PM 33.6336 -116.5772 91° East 403 464 33,000  Level Los Angeles Center
08:14PM 33.6325 -116.4447 91° East 398 458 33,000  Level Los Angeles Center
08:15PM 33.6300 -116.3139 91° East 393 452 33,000  Level Los Angeles Center
08:16PM 33.6275 -116.1578 91° East 391 450 33,000  Level Los Angeles Center
08:17PM 33.6244 -116.0281 92° East 390 449 33,000  Level Los Angeles Center
08:18PM 33.6228 -115.8975 91° East 391 450 33,000  Level Los Angeles Center
08:19PM 33.6192 -115.7678 92° East 391 450 33,000  Level Los Angeles Center
08:20PM 33.6175 -115.6372 91° East 391 450 33,000  Level Los Angeles Center
08:21PM 33.6125 -115.5056 93° East 394 453 33,000  Level Los Angeles Center
08:22PM 33.6097 -115.3497 91° East 390 449 33,000  Level Los Angeles Center
08:23PM 33.6067 -115.2206 92° East 388 447 33,000  Level Los Angeles Center
08:24PM 33.5922 -115.0933 98° East 388 447 33,000  Level Los Angeles Center
08:25PM 33.5758 -114.9672 99° East 383 441 33,000  Level Los Angeles Center
08:26PM 33.5603 -114.8375 98° East 393 452 33,000  Level Los Angeles Center
08:27PM 33.5436 -114.7108 99° East 390 449 33,000 -840 Level Los Angeles Center
08:28PM 33.5239 -114.5575 99° East 387 445 31,300 -1,560 Descending Los Angeles Center
08:29PM 33.5211 -114.5153 95° East 387 445 30,600 -2,100 Descending Albuquerque Center
08:30PM 33.5025 -114.3678 99° East 376 433 28,100 -2,100 Descending Albuquerque Center
08:31PM 33.4856 -114.2467 99° East 371 427 26,400 -1,560 Descending Albuquerque Center
08:32PM 33.4689 -114.1222 99° East 377 434 25,000 -720 Descending Albuquerque Center
08:33PM 33.4489 -114.0008 101° East 374 430 25,000  Level Albuquerque Center
08:34PM 33.4219 -113.8806 105° East 374 430 25,000  Level Albuquerque Center
08:35PM 33.3994 -113.7603 103° East 372 428 25,000 -240 Level Albuquerque Center
08:36PM 33.3750 -113.6444 104° East 364 419 24,600 -900 Descending Albuquerque Center
08:37PM 33.3536 -113.5381 104° East 337 388 23,200 -1,320 Descending Albuquerque Center
08:38PM 33.3283 -113.4139 104° East 324 373 22,000 -1,140 Descending Albuquerque Center
08:39PM 33.3075 -113.3147 104° East 313 360 20,900 -1,320 Descending Albuquerque Center
08:40PM 33.2878 -113.2189 104° East 302 348 19,300 -1,560 Descending Albuquerque Center
08:41PM 33.2736 -113.1208 100° East 300 345 17,800 -1,140 Descending Albuquerque Center
08:42PM 33.2753 -113.0197 89° East 303 349 17,000 -420 Descending Albuquerque Center
08:43PM 33.2775 -112.9208 88° East 299 344 17,000 -540 Level Albuquerque Center
08:44PM 33.2800 -112.8239 88° East 295 339 16,000 -540 Descending Albuquerque Center
08:45PM 33.2819 -112.7283 89° East 290 334 16,000 -300 Level Albuquerque Center
08:46PM 33.2839 -112.6308 89° East 292 336 15,400 -1,140 Descending Albuquerque Center
08:47PM 33.2869 -112.5269 88° East 286 329 13,700 -1,620 Descending Albuquerque Center
08:48PM 33.2897 -112.4325 88° East 286 329 12,100 -1,380 Descending Albuquerque Center
08:49PM 33.2931 -112.3358 88° East 291 335 10,900 -600 Descending Albuquerque Center
08:50PM 33.2986 -112.2506 86° East 270 311 11,000 -420 Climbing Albuquerque Center
08:51PM 33.3056 -112.1742 84° East 243 280 10,100 -1,140 Descending Albuquerque Center
08:52PM 33.3136 -112.0828 84° East 234 269 8,700 -1,200 Descending Albuquerque Center
08:53PM 33.3336 -112.0064 73° East 241 277 7,700 -840 Descending Albuquerque Center
08:54PM 33.3469 -111.9286 78° East 240 276 7,000 -600 Descending Albuquerque Center
08:55PM 33.3456 -111.8531 91° East 232 267 6,500 -720 Descending Albuquerque Center
08:56PM 33.3447 -111.7753 91° East 234 269 5,600 -840 Descending Albuquerque Center
08:57PM 33.3883 -111.7419 33° Northeast 227 261 4,900 -780 Descending Albuquerque Center
08:58PM 33.4114 -111.8047 294° West 215 247 4,100 -780 Descending Albuquerque Center
08:59PM 33.4236 -111.8642 284° West 201 231 3,300 -960 Descending Albuquerque Center
09:00PM 33.4336 -111.9286 281° West 181 208 2,200 -960 Descending Albuquerque Center
09:01PM 33.4314 -111.9758 267° West 160 184 1,400 -840 Descending Albuquerque Center